Hatsu Ethic — VQFS4 — position and weather

sailwx.info

Track history (hours):
 
Tides and Currents Weather Stations Pressure Air Temp Water Temp Dewpoint Dewpoint Depression Visibility Wind Speed Wind Dir Waves Ship Positions

Hatsu Ethic

Last reported at 2016-Jun-26 04:34 UTC. Time now 2016-Jun-26 10:14 UTC.
Position N 34°12' E 134°56'.

Type: Ship (hazmat cat D). MMSI: 235603000.

Date/timePositionNaut miles runAvg speedWind from/ knotsBaromVisibWave heightAir tempDewpointWater temp
2016-Jun-26 04:34N 34°12' E 134°56'1615.8
2016-Jun-26 03:33N 34°26' E 135°05'1716.6
2016-Jun-26 02:33N 34°37' E 135°21'4 0.7
2016-Jun-25 21:15N 34°39' E 135°24'0 0.0
2016-Jun-25 17:33N 34°39' E 135°24'0 0.0
2016-Jun-25 16:33N 34°39' E 135°24'0 0.0
2016-Jun-25 15:27N 34°39' E 135°24'0 0.0
2016-Jun-25 14:27N 34°39' E 135°24'0 0.0
2016-Jun-25 13:21N 34°39' E 135°24'0 0.0
2016-Jun-25 12:27N 34°39' E 135°24'0 0.0
2016-Jun-25 11:33N 34°39' E 135°24'2 2.1
2016-Jun-25 10:33N 34°38' E 135°22'1716.9
2016-Jun-25 09:33N 34°25' E 135°08'1514.7
2016-Jun-25 08:33N 34°13' E 134°59'1313.2
2016-Jun-25 07:33N 33°60' E 134°60'24015.0
2016-Jun-24 15:33N 35°00' E 139°41'1413.8
2016-Jun-24 14:33N 35°13' E 139°46'1212.1
2016-Jun-24 13:34N 35°25' E 139°44'1010.3
2016-Jun-24 12:33N 35°35' E 139°47'1 1.4
2016-Jun-24 11:31N 35°37' E 139°47'0 0.0
2016-Jun-24 10:31N 35°37' E 139°47'0 0.0
2016-Jun-24 09:31N 35°37' E 139°47'0 0.0
2016-Jun-24 08:31N 35°37' E 139°47'0 0.0
2016-Jun-24 07:31N 35°37' E 139°47'0 0.0
2016-Jun-24 04:31N 35°37' E 139°47'0 0.0
2016-Jun-24 03:31N 35°37' E 139°47'0 0.0
2016-Jun-24 02:31N 35°37' E 139°47'0 0.0
2016-Jun-24 01:28N 35°37' E 139°47'0 0.0
2016-Jun-24 00:31N 35°37' E 139°47'0 0.0
2016-Jun-23 23:31N 35°37' E 139°47'0 0.1
2016-Jun-23 22:33N 35°37' E 139°47'6 6.1
2016-Jun-23 21:33N 35°32' E 139°52'1211.8
2016-Jun-23 20:33N 35°22' E 139°45'1211.5
2016-Jun-23 19:33N 35°10' E 139°47'1010.0
2016-Jun-23 18:32N 35°01' E 139°42'1613.1
2016-Jun-23 17:21N 34°50' E 139°56'1517.2
2016-Jun-23 16:27N 34°55' E 140°14'1618.2
2016-Jun-23 15:33N 35°07' E 140°28'1817.8
2016-Jun-23 14:33N 35°19' E 140°43'1817.8
2016-Jun-23 13:32N 35°32' E 140°59'  
Track history (hours):
 
Tides and Currents Weather Stations Pressure Air Temp Water Temp Dewpoint Dewpoint Depression Visibility Wind Speed Wind Dir Waves Ship Positions

Hatsu Ethic

Last reported at 2016-Jun-26 04:34 UTC. Time now 2016-Jun-26 10:14 UTC.
Position N 34°12' E 134°56'.

Type: Ship (hazmat cat D). MMSI: 235603000.

Date/timePositionNaut miles runAvg speedWind from/ knotsBaromVisibWave heightAir tempDewpointWater temp
2016-Jun-26 04:34N 34°12' E 134°56'1615.8
2016-Jun-26 03:33N 34°26' E 135°05'1716.6
2016-Jun-26 02:33N 34°37' E 135°21'4 0.7
2016-Jun-25 21:15N 34°39' E 135°24'0 0.0
2016-Jun-25 17:33N 34°39' E 135°24'0 0.0
2016-Jun-25 16:33N 34°39' E 135°24'0 0.0
2016-Jun-25 15:27N 34°39' E 135°24'0 0.0
2016-Jun-25 14:27N 34°39' E 135°24'0 0.0
2016-Jun-25 13:21N 34°39' E 135°24'0 0.0
2016-Jun-25 12:27N 34°39' E 135°24'0 0.0
2016-Jun-25 11:33N 34°39' E 135°24'2 2.1
2016-Jun-25 10:33N 34°38' E 135°22'1716.9
2016-Jun-25 09:33N 34°25' E 135°08'1514.7
2016-Jun-25 08:33N 34°13' E 134°59'1313.2
2016-Jun-25 07:33N 33°60' E 134°60'24015.0
2016-Jun-24 15:33N 35°00' E 139°41'1413.8
2016-Jun-24 14:33N 35°13' E 139°46'1212.1
2016-Jun-24 13:34N 35°25' E 139°44'1010.3
2016-Jun-24 12:33N 35°35' E 139°47'1 1.4
2016-Jun-24 11:31N 35°37' E 139°47'0 0.0
2016-Jun-24 10:31N 35°37' E 139°47'0 0.0
2016-Jun-24 09:31N 35°37' E 139°47'0 0.0
2016-Jun-24 08:31N 35°37' E 139°47'0 0.0
2016-Jun-24 07:31N 35°37' E 139°47'0 0.0
2016-Jun-24 04:31N 35°37' E 139°47'0 0.0
2016-Jun-24 03:31N 35°37' E 139°47'0 0.0
2016-Jun-24 02:31N 35°37' E 139°47'0 0.0
2016-Jun-24 01:28N 35°37' E 139°47'0 0.0
2016-Jun-24 00:31N 35°37' E 139°47'0 0.0
2016-Jun-23 23:31N 35°37' E 139°47'0 0.1
2016-Jun-23 22:33N 35°37' E 139°47'6 6.1
2016-Jun-23 21:33N 35°32' E 139°52'1211.8
2016-Jun-23 20:33N 35°22' E 139°45'1211.5
2016-Jun-23 19:33N 35°10' E 139°47'1010.0
2016-Jun-23 18:32N 35°01' E 139°42'1613.1
2016-Jun-23 17:21N 34°50' E 139°56'1517.2
2016-Jun-23 16:27N 34°55' E 140°14'1618.2
2016-Jun-23 15:33N 35°07' E 140°28'1817.8
2016-Jun-23 14:33N 35°19' E 140°43'1817.8
2016-Jun-23 13:32N 35°32' E 140°59'  

Dump ship's entire track history